• Join FlightAware (Why Join?)
  • Login
  • US Flag 
12:13PM EDT


 

Airport Tracker/Info


-or-


 

Live Flight TrackerFlight Track Log ✈ VH-CKF ✈ 21-Aug-2013 ✈ YPJT / JAD - YPJT / JAD

Flight Track Log - Related Links

Times and Time Zones

All times are in EDT time to prevent confusion due to time zone crossing. See the VH-CKF flight status page for this flight to view local times or setup timezone preferences in your user account.

Time Position Orientation Groundspeed Altitude Reporting Facility
EDT Latitude Longitude Course Direction KTS MPH feet Rate Location/Type
04:18AM -32.0100 115.7574 North 87 100 1,500  Level Aus ATC (RADAR)
04:18AM -31.9969 115.7580 North 79 91 1,500  Level Aus ATC (RADAR)
04:19AM -31.9840 115.7846 60° Northeast 79 91 1,500 -60 Level Aus ATC (RADAR)
04:20AM -31.9729 115.8078 61° Northeast 82 94 1,400  Descending Aus ATC (RADAR)
04:21AM -31.9649 115.8248 61° Northeast 79 91 1,500 60 Climbing Aus ATC (RADAR)
04:22AM -31.9596 115.8392 67° East 80 92 1,500  Level Aus ATC (RADAR)
04:22AM -31.9587 115.8544 86° East 78 90 1,500  Level Aus ATC (RADAR)
04:23AM -31.9501 115.8628 39° Northeast 85 98 1,500  Level Aus ATC (RADAR)
04:24AM -31.9380 115.8448 308° West 81 93 1,500  Level Aus ATC (RADAR)
04:25AM -31.9272 115.8236 301° West 81 93 1,500  Level Aus ATC (RADAR)
04:25AM -31.9210 115.8103 299° West 77 89 1,500 -120 Level Aus ATC (RADAR)
04:26AM -31.9136 115.7930 297° West 77 89 1,400  Descending Aus ATC (RADAR)
04:27AM -31.9053 115.7697 293° West 77 89 1,500  Climbing Aus ATC (RADAR)
04:28AM -31.9037 115.7527 276° West 69 79 1,500  Level Aus ATC (RADAR)
04:28AM -31.9138 115.7509 189° South 63 72 1,500  Level Aus ATC (RADAR)
04:29AM -31.9269 115.7503 182° South 62 71 1,500  Level Aus ATC (RADAR)
04:30AM -31.9450 115.7507 179° South 70 81 -1,680 Descending Aus ATC (RADAR)
04:33AM -32.0204 115.7530 360° North 1,500 420 Climbing Aus ATC (Calculated)
04:33AM -32.0204 115.7530 178° South 1,500  Level Aus ATC (Calculated)
04:35AM -32.0374 115.7538 178° South  Level FlightAware Approximate
04:36AM -32.0525 115.7546 178° South  Level FlightAware Approximate
04:37AM -32.0675 115.7553 178° South  Level FlightAware Approximate
04:37AM -32.0855 115.7594 193° South 1,500  Level Aus ATC (Calculated)
04:39AM -32.1091 115.7528 193° South  Level FlightAware Approximate
04:39AM -32.1229 115.7918 314° West 1,500  Level Aus ATC (Calculated)
04:40AM -32.0945 115.7569 13° North  Level FlightAware Approximate
04:41AM -32.1117 115.7775 313° West  Level FlightAware Approximate
04:42AM -32.1014 115.7645 313° West  Level FlightAware Approximate
04:42AM -32.0964 115.8495 274° West 100  Level Aus ATC (Calculated)
04:43AM -32.0912 115.7515 313° West  Level FlightAware Approximate
04:44AM -32.0961 115.8300 271° West  Level FlightAware Approximate
04:45AM -32.0966 115.8477 172° South  Level Estimated
04:46AM -32.1059 115.8337 232° Southwest  Level FlightAware Approximate
04:47AM -32.1151 115.8197 232° Southwest  Level FlightAware Approximate
04:48AM -32.1103 115.8365 39° Northeast  Level Estimated
04:49AM -32.0999 115.8236 313° West  Level FlightAware Approximate
04:50AM -32.0896 115.8107 313° West  Level FlightAware Approximate
04:51AM -32.0999 115.8236 133° Southeast  Level FlightAware Approximate
04:52AM -32.0896 115.8107 313° West  Level FlightAware Approximate
04:53AM -32.0956 115.8275 92° East  Level FlightAware Approximate
04:54AM -32.0962 115.8452 92° East  Level FlightAware Approximate
04:55AM -32.0968 115.8629 92° East  Level FlightAware Approximate
04:56AM -32.0974 115.8807 92° East  Level FlightAware Approximate
04:57AM -32.0975 115.8812 92° East  Level FlightAware Approximate
04:58AM -32.0975 115.8811 92° East  Level Estimated
04:59AM -32.0975 115.8811 92° East  Level Estimated
05:00AM -32.0975 115.8811 92° East  Level Estimated
05:01AM -32.0975 115.8811 92° East  Level Estimated
05:02AM -32.0975 115.8811 92° East  Level Estimated
05:03AM -32.0975 115.8811 92° East  Level Estimated
05:04AM -32.0975 115.8811 92° East  Level Estimated
05:05AM -32.0975 115.8811 92° East  Level Estimated
05:06AM -32.0975 115.8811 92° East  Level Estimated
05:07AM -32.0975 115.8811 92° East  Level Estimated
05:08AM -32.0975 115.8811 92° East  Level Estimated
05:09AM -32.0975 115.8811 92° East  Level Estimated
05:10AM -32.0975 115.8811 92° East  Level Estimated
05:11AM -32.0975 115.8811 92° East  Level Estimated
05:12AM -32.0975 115.8811 92° East  Level Estimated
05:13AM -32.0975 115.8811 92° East  Level Estimated
05:14AM -32.0975 115.8811 92° East  Level Estimated
05:15AM -32.0975 115.8811 92° East  Level Estimated
05:16AM -32.0975 115.8811 92° East  Level Estimated